Portada
METAR-TAF:

METAR-TAF

Aeroports :

Phetchabun, Tailàndia

latitud: 16-40-33N, longitud: 101-11-42E, altitud: 137 m

Observació

L'informe es va fer fa 20 minuts, a les 01:00 UTC
Vent 4 kt del Nord
Temperatura 26°C
Humitat 79%
Pressió 1016 hPa
Visibilitat 10 km o més
Cel ennuvolat a una alçada de 2500 ft

METAR: VTPB 140100Z 01004KT 9999 BKN025 26/22 Q1016 NOSIG

Hora: 08:20 (01:20 UTC)

Pronòstic

L'informe es va fer fa 2 hores i 20 minuts, a les 23:00 UTC
Pronòstic vàlid del 14 a les 00 UTC al 14 a les 24 UTC
Vent 5 kt del Nord-Est
Visibilitat 10 km o més
Escasses núvols a una alçada de 3000 ft

TAF: VTPB 132300Z 1400/1424 04005KT 9999 FEW030

Observacions i pronòstics meteorològics de més de 4000 aeroports (METAR i TAF).

Les estacions disponibles són els punts grocs i vermells al mapa.

Posi el ratolí al punt desitjat per veure el nom de l'estació.

Feu clic per veure les observacions i els pronòstics meteorològics.

Per canviar el mapa: feu clic els botons verds amb una creu de color negre per apropar; al botó verd amb un guió per allunyar la imatge; o en les fletxes verdes per a mapes adjacents.


METAR-TAF: